Time;durP1;ratioP1;P1;durP2;ratioP2;P2;SDS_P1;SDS_P2;PMS_P1;PMS_P2;Temp;Humidity;BMP_temperature;BMP_pressure;BME280_temperature;BME280_humidity;BME280_pressure;Samples;Min_cycle;Max_cycle;Signal;HPM_P1;HPM_P2
2023/04/02 00:01:21;;;;;;;1.80;0.70;;;;;;;6.10;100.00;96449.19;5016411;28;20037;-58
2023/04/02 00:03:52;;;;;;;3.00;1.00;;;;;;;6.14;100.00;96446.00;5015928;28;20065;-59
2023/04/02 00:06:29;;;;;;;1.48;0.80;;;;;;;6.03;100.00;96448.53;5021146;28;20500;-60
2023/04/02 00:09:03;;;;;;;2.17;0.75;;;;;;;6.07;100.00;96447.00;5014578;28;20054;-56
2023/04/02 00:11:36;;;;;;;1.58;0.65;;;;;;;6.10;100.00;96453.75;5018398;28;20042;-58
2023/04/02 00:14:11;;;;;;;0.93;0.60;;;;;;;6.15;100.00;96451.13;5019150;28;20045;-59
2023/04/02 00:16:38;;;;;;;0.85;0.40;;;;;;;5.99;100.00;96455.44;5013029;28;20455;-59
2023/04/02 00:19:11;;;;;;;1.42;0.70;;;;;;;5.97;100.00;96455.66;5019473;28;20049;-60
2023/04/02 00:21:40;;;;;;;0.68;0.40;;;;;;;5.97;100.00;96452.97;5023698;28;20046;-59
2023/04/02 00:24:14;;;;;;;2.15;0.60;;;;;;;5.81;100.00;96454.63;5028193;28;20143;-60
2023/04/02 00:26:46;;;;;;;1.85;1.00;;;;;;;5.77;100.00;96456.16;5022658;28;20052;-60
2023/04/02 00:29:14;;;;;;;;;;;;;;;5.76;100.00;96465.28;5024379;28;20044;-59
2023/04/02 00:31:44;;;;;;;0.93;0.50;;;;;;;5.95;100.00;96459.66;5023014;28;19948;-59
2023/04/02 00:34:20;;;;;;;1.77;0.70;;;;;;;5.88;100.00;96467.88;5026234;28;20583;-60
2023/04/02 00:36:48;;;;;;;2.15;0.95;;;;;;;5.81;100.00;96469.91;5021863;28;20065;-60
2023/04/02 00:39:21;;;;;;;1.13;0.55;;;;;;;5.82;100.00;96471.56;5022711;28;20041;-58
2023/04/02 00:41:53;;;;;;;2.83;1.08;;;;;;;5.81;100.00;96468.06;5021707;28;20078;-59
2023/04/02 00:44:20;;;;;;;0.98;0.50;;;;;;;5.92;100.00;96476.28;5024171;28;20030;-60
2023/04/02 00:46:48;;;;;;;1.27;0.70;;;;;;;5.97;100.00;96482.53;5022862;28;20069;-59
2023/04/02 00:49:30;;;;;;;1.90;0.55;;;;;;;6.05;100.00;96477.84;5022642;28;20523;-59
2023/04/02 00:52:01;;;;;;;1.08;0.40;;;;;;;6.20;100.00;96480.75;5025418;28;20501;-58
2023/04/02 00:54:31;;;;;;;0.87;0.43;;;;;;;6.23;100.00;96474.09;5025421;28;20128;-57
2023/04/02 00:56:58;;;;;;;0.90;0.40;;;;;;;6.35;100.00;96469.41;5023794;28;20794;-59
2023/04/02 00:59:35;;;;;;;1.45;0.57;;;;;;;6.22;100.00;96481.34;5021953;28;20045;-57
2023/04/02 01:02:12;;;;;;;2.15;0.60;;;;;;;6.05;100.00;96478.66;5022589;28;20049;-58
2023/04/02 01:04:40;;;;;;;2.08;0.70;;;;;;;5.98;100.00;96478.78;5021153;28;20555;-60
2023/04/02 01:07:09;;;;;;;1.27;0.60;;;;;;;6.08;100.00;96477.38;5022644;28;20068;-58
2023/04/02 01:10:03;;;;;;;0.47;0.40;;;;;;;6.13;100.00;96487.38;5027557;28;20037;-60
2023/04/02 01:12:45;;;;;;;3.25;0.70;;;;;;;6.12;100.00;96491.97;5021027;28;20072;-59
2023/04/02 01:15:28;;;;;;;5.93;0.70;;;;;;;6.26;100.00;96486.25;5024431;28;20037;-60
2023/04/02 01:18:08;;;;;;;1.92;0.55;;;;;;;6.26;100.00;96495.09;5018910;28;21003;-60
2023/04/02 01:20:56;;;;;;;0.98;0.50;;;;;;;6.33;100.00;96493.06;5025766;28;20044;-58
2023/04/02 01:23:34;;;;;;;2.13;0.63;;;;;;;6.53;100.00;96491.75;5027800;28;20159;-58
2023/04/02 01:26:14;;;;;;;0.93;0.47;;;;;;;6.55;100.00;96499.53;5025516;28;20041;-60
2023/04/02 01:29:14;;;;;;;4.72;0.80;;;;;;;6.42;100.00;96500.72;5020448;28;20551;-59
2023/04/02 01:31:43;;;;;;;1.85;0.40;;;;;;;6.54;100.00;96504.13;5021172;28;20072;-58
2023/04/02 01:34:14;;;;;;;1.52;0.50;;;;;;;6.56;100.00;96499.28;5018760;28;20061;-60
2023/04/02 01:37:02;;;;;;;1.03;0.40;;;;;;;6.53;100.00;96504.38;5020573;28;20045;-60
2023/04/02 01:39:38;;;;;;;2.55;0.45;;;;;;;6.59;100.00;96506.88;5022067;28;20532;-58
2023/04/02 01:42:14;;;;;;;1.88;0.52;;;;;;;6.55;100.00;96507.59;5023700;28;20444;-58
2023/04/02 01:44:47;;;;;;;1.20;0.57;;;;;;;6.50;100.00;96505.69;5025150;28;20176;-58
2023/04/02 01:47:18;;;;;;;2.08;0.50;;;;;;;6.49;100.00;96510.22;5023868;28;20053;-60
2023/04/02 01:49:46;;;;;;;1.33;0.60;;;;;;;6.48;100.00;96511.31;5026884;28;20056;-60
2023/04/02 01:52:16;;;;;;;1.35;0.70;;;;;;;6.44;100.00;96509.34;5024765;28;20363;-59
2023/04/02 01:54:46;;;;;;;0.98;0.63;;;;;;;6.31;100.00;96515.88;5028737;28;20041;-60
2023/04/02 01:57:13;;;;;;;1.23;0.52;;;;;;;6.49;100.00;96517.50;5023497;28;20069;-60
2023/04/02 01:59:40;;;;;;;0.90;0.40;;;;;;;6.65;100.00;96510.47;5019137;28;20038;-58
2023/04/02 02:02:11;;;;;;;0.85;0.40;;;;;;;6.75;100.00;96515.16;5024539;28;20056;-58
2023/04/02 02:04:39;;;;;;;0.60;0.40;;;;;;;6.64;100.00;96517.72;5018819;28;20045;-59
2023/04/02 02:07:13;;;;;;;2.03;0.95;;;;;;;6.48;100.00;96521.22;5023229;28;20041;-59
2023/04/02 02:09:43;;;;;;;1.17;0.50;;;;;;;6.37;100.00;96518.41;5027922;28;20041;-59
2023/04/02 02:12:14;;;;;;;1.58;0.70;;;;;;;6.29;100.00;96523.38;5020677;28;20053;-59
2023/04/02 02:14:49;;;;;;;0.35;0.30;;;;;;;6.41;100.00;96526.78;5030629;28;20124;-59
2023/04/02 02:17:22;;;;;;;1.33;0.47;;;;;;;6.29;100.00;96528.75;5021167;28;20048;-58
2023/04/02 02:19:54;;;;;;;1.55;0.40;;;;;;;6.23;100.00;96525.19;5018662;28;20526;-59
2023/04/02 02:22:27;;;;;;;;;;;;;;;6.36;100.00;96532.91;5020930;28;20444;-60
2023/04/02 02:24:56;;;;;;;0.55;0.40;;;;;;;6.41;100.00;96532.16;5020015;28;19920;-60
2023/04/02 02:27:22;;;;;;;2.13;0.40;;;;;;;6.33;100.00;96540.63;5014361;28;20054;-59
2023/04/02 02:30:12;;;;;;;1.70;0.60;;;;;;;6.22;100.00;96539.66;5027332;28;20063;-59
2023/04/02 02:32:42;;;;;;;;;;;;;;;6.34;100.00;96534.22;5019099;28;20618;-58
2023/04/02 02:35:20;;;;;;;1.13;0.55;;;;;;;6.31;100.00;96532.03;5025475;28;19928;-58
2023/04/02 02:38:20;;;;;;;0.75;0.40;;;;;;;6.30;100.00;96533.09;5023202;28;20544;-59
2023/04/02 02:40:52;;;;;;;0.95;0.50;;;;;;;6.32;100.00;96544.38;4999347;28;20108;-59
2023/04/02 02:43:19;;;;;;;;;;;;;;;6.30;100.00;96546.53;5024028;28;21817;-60
2023/04/02 02:45:48;;;;;;;0.82;0.45;;;;;;;6.21;100.00;96546.94;5024868;28;19971;-60
2023/04/02 02:48:18;;;;;;;0.43;0.30;;;;;;;6.13;100.00;96541.97;5021853;28;20042;-58
2023/04/02 02:50:47;;;;;;;1.75;0.60;;;;;;;6.19;100.00;96546.34;5021268;28;20033;-59
2023/04/02 02:53:23;;;;;;;1.95;0.50;;;;;;;6.17;100.00;96547.66;5023906;28;20037;-58
2023/04/02 02:55:59;;;;;;;0.95;0.40;;;;;;;6.09;100.00;96552.38;5019114;28;20041;-59
2023/04/02 02:58:33;;;;;;;2.08;0.70;;;;;;;6.09;100.00;96549.66;5019980;28;20053;-60
2023/04/02 03:01:18;;;;;;;1.35;0.50;;;;;;;6.14;100.00;96551.66;5018511;28;20048;-59
2023/04/02 03:03:48;;;;;;;1.27;0.60;;;;;;;6.15;100.00;96557.84;5020218;28;20136;-59
2023/04/02 03:06:19;;;;;;;1.40;0.50;;;;;;;6.17;100.00;96555.72;5022759;28;20045;-58
2023/04/02 03:09:26;;;;;;;1.67;0.50;;;;;;;6.17;100.00;96559.22;5023588;28;20037;-59
2023/04/02 03:12:07;;;;;;;0.88;0.50;;;;;;;6.14;100.00;96569.63;5019708;28;20052;-59
2023/04/02 03:14:44;;;;;;;3.88;0.57;;;;;;;6.26;100.00;96565.00;5021593;28;20054;-58
2023/04/02 03:17:29;;;;;;;0.65;0.40;;;;;;;6.31;100.00;96573.16;5019496;28;20071;-60
2023/04/02 03:20:05;;;;;;;0.65;0.30;;;;;;;6.29;100.00;96569.91;5018892;28;20033;-59
2023/04/02 03:22:40;;;;;;;0.57;0.40;;;;;;;6.38;100.00;96576.50;5018104;28;20636;-59
2023/04/02 03:25:36;;;;;;;0.82;0.32;;;;;;;6.36;100.00;96581.31;5021764;28;20516;-60
2023/04/02 03:28:13;;;;;;;1.77;0.40;;;;;;;6.36;100.00;96584.00;5020988;28;20044;-57
2023/04/02 03:30:54;;;;;;;0.73;0.40;;;;;;;6.40;100.00;96586.19;5019179;28;20132;-59
2023/04/02 03:33:28;;;;;;;0.50;0.30;;;;;;;6.47;100.00;96589.53;5021917;28;20045;-59
2023/04/02 03:36:21;;;;;;;1.55;0.52;;;;;;;6.58;100.00;96588.66;5019921;28;20587;-60
2023/04/02 03:38:59;;;;;;;0.80;0.35;;;;;;;6.68;100.00;96587.16;5019261;28;20049;-60
2023/04/02 03:41:57;;;;;;;2.38;0.40;;;;;;;6.80;100.00;96604.03;5020437;28;20081;-59
2023/04/02 03:44:30;;;;;;;0.30;0.25;;;;;;;6.70;100.00;96607.38;5027656;28;20726;-59
2023/04/02 03:47:03;;;;;;;1.30;0.50;;;;;;;6.48;100.00;96605.44;5017939;28;20057;-59
2023/04/02 03:49:37;;;;;;;0.70;0.40;;;;;;;6.41;100.00;96604.75;5017618;28;20038;-58
2023/04/02 03:52:08;;;;;;;0.55;0.30;;;;;;;6.43;100.00;96613.41;5017685;28;20042;-60
2023/04/02 03:54:36;;;;;;;1.10;0.30;;;;;;;6.52;100.00;96613.00;5020976;28;20041;-59
2023/04/02 03:57:07;;;;;;;1.15;0.50;;;;;;;6.46;100.00;96617.50;5027151;28;20501;-60
2023/04/02 03:59:47;;;;;;;0.52;0.30;;;;;;;6.34;100.00;96613.00;5022140;28;20688;-59
2023/04/02 04:02:30;;;;;;;0.95;0.55;;;;;;;6.09;100.00;96616.06;5023681;28;20079;-59
2023/04/02 04:04:58;;;;;;;1.02;0.40;;;;;;;6.11;100.00;96622.00;5023182;28;20045;-59
2023/04/02 04:07:43;;;;;;;0.57;0.40;;;;;;;6.06;100.00;96624.59;5028033;28;20053;-59
2023/04/02 04:10:19;;;;;;;0.95;0.50;;;;;;;6.11;100.00;96622.00;5022893;28;20045;-59
2023/04/02 04:12:48;;;;;;;0.40;0.30;;;;;;;6.23;100.00;96621.97;5025709;28;20038;-58
2023/04/02 04:15:56;;;;;;;0.90;0.57;;;;;;;6.31;100.00;96629.63;5024293;28;20041;-58
2023/04/02 04:18:36;;;;;;;0.88;0.40;;;;;;;6.52;100.00;96635.31;4982098;28;20045;-59
2023/04/02 04:21:35;;;;;;;1.35;0.30;;;;;;;6.30;100.00;96641.41;5023726;28;20626;-57
2023/04/02 04:24:21;;;;;;;0.30;0.30;;;;;;;6.21;100.00;96640.19;5026674;28;20033;-57
2023/04/02 04:27:02;;;;;;;0.70;0.40;;;;;;;6.37;100.00;96647.47;5024856;28;20049;-58
2023/04/02 04:30:04;;;;;;;0.50;0.20;;;;;;;6.42;100.00;96646.75;5020843;28;20140;-59
2023/04/02 04:32:41;;;;;;;0.70;0.38;;;;;;;6.33;100.00;96651.69;5021964;28;20044;-60
2023/04/02 04:35:35;;;;;;;0.85;0.50;;;;;;;6.29;100.00;96653.25;5024455;28;20083;-58
2023/04/02 04:38:13;;;;;;;1.08;0.40;;;;;;;6.18;100.00;96656.78;5022013;28;20057;-59
2023/04/02 04:41:00;;;;;;;1.00;0.75;;;;;;;6.07;100.00;96653.09;5027073;28;20034;-60
2023/04/02 04:43:51;;;;;;;1.42;0.50;;;;;;;6.03;100.00;96660.84;5020986;28;20132;-60
2023/04/02 04:46:27;;;;;;;0.57;0.30;;;;;;;6.09;100.00;96667.13;5023832;28;20148;-60
2023/04/02 04:49:01;;;;;;;0.40;0.30;;;;;;;6.03;100.00;96671.59;5017291;28;20212;-60
2023/04/02 04:51:34;;;;;;;0.60;0.40;;;;;;;6.13;100.00;96680.91;5016586;28;20420;-60
2023/04/02 04:54:01;;;;;;;0.63;0.43;;;;;;;6.19;100.00;96669.19;5045230;28;20045;-58
2023/04/02 04:56:31;;;;;;;0.85;0.55;;;;;;;6.16;100.00;96675.06;5019505;28;20088;-59
2023/04/02 04:59:16;;;;;;;1.05;0.50;;;;;;;6.15;100.00;96676.13;5019081;28;20057;-59
2023/04/02 05:02:05;;;;;;;2.58;0.60;;;;;;;6.18;100.00;96681.00;5029483;28;20095;-59
2023/04/02 05:04:36;;;;;;;1.92;0.60;;;;;;;6.36;100.00;96680.81;5021511;28;20420;-59
2023/04/02 05:07:26;;;;;;;1.90;0.57;;;;;;;6.42;100.00;96689.78;5018454;28;20318;-59
2023/04/02 05:10:08;;;;;;;2.72;0.80;;;;;;;6.47;100.00;96689.03;5020712;28;20053;-59
2023/04/02 05:12:45;;;;;;;0.60;0.30;;;;;;;6.58;100.00;96701.63;5021485;28;20124;-59
2023/04/02 05:15:32;;;;;;;0.50;0.50;;;;;;;6.66;100.00;96700.38;5022226;28;20038;-58
2023/04/02 05:18:12;;;;;;;0.57;0.40;;;;;;;6.74;100.00;96701.84;5019662;28;20042;-59
2023/04/02 05:20:47;;;;;;;1.35;0.38;;;;;;;6.74;100.00;96704.53;5018238;28;20041;-58
2023/04/02 05:23:21;;;;;;;1.40;0.43;;;;;;;6.68;100.00;96700.97;5024508;28;20516;-59
2023/04/02 05:26:00;;;;;;;0.60;0.40;;;;;;;6.63;100.00;96709.75;5017360;28;20656;-57
2023/04/02 05:28:42;;;;;;;0.52;0.30;;;;;;;6.64;100.00;96714.06;5015956;28;20042;-59
2023/04/02 05:31:25;;;;;;;1.15;0.20;;;;;;;6.49;100.00;96713.84;5024973;28;20897;-58
2023/04/02 05:33:54;;;;;;;1.48;0.38;;;;;;;6.33;100.00;96715.41;5023880;28;20045;-59
2023/04/02 05:36:24;;;;;;;0.75;0.40;;;;;;;6.47;100.00;96726.69;5027502;28;20052;-60
2023/04/02 05:38:56;;;;;;;1.00;0.57;;;;;;;6.46;100.00;96723.19;5020144;28;20084;-58
2023/04/02 05:41:46;;;;;;;0.73;0.40;;;;;;;6.40;100.00;96720.63;5028507;28;20044;-59
2023/04/02 05:44:32;;;;;;;1.67;0.68;;;;;;;6.34;100.00;96734.00;5016763;28;20038;-59
2023/04/02 05:47:05;;;;;;;1.67;0.50;;;;;;;6.33;100.00;96736.91;5027513;28;20133;-56
2023/04/02 05:49:46;;;;;;;2.17;0.50;;;;;;;6.48;100.00;96728.31;5025515;28;20041;-57
2023/04/02 05:52:25;;;;;;;1.55;0.50;;;;;;;6.46;100.00;96725.88;5027174;28;20104;-57
2023/04/02 05:54:58;;;;;;;3.50;0.90;;;;;;;6.43;100.00;96736.28;5027661;28;20046;-59
2023/04/02 05:57:38;;;;;;;4.45;0.85;;;;;;;6.54;100.00;96732.75;5026845;28;20513;-55
2023/04/02 06:00:38;;;;;;;1.90;0.73;;;;;;;6.64;100.00;96729.44;5020081;28;20078;-58
2023/04/02 06:03:33;;;;;;;5.15;1.63;;;;;;;6.53;100.00;96733.81;5029074;28;20041;-58
2023/04/02 06:06:05;;;;;;;3.22;1.17;;;;;;;6.60;100.00;96744.41;5028312;28;20038;-57
2023/04/02 06:08:41;;;;;;;3.78;0.90;;;;;;;6.75;100.00;96743.88;5026411;28;20840;-57
2023/04/02 06:11:19;;;;;;;1.65;0.60;;;;;;;6.92;100.00;96748.47;5022450;28;20065;-57
2023/04/02 06:13:46;;;;;;;0.95;0.50;;;;;;;6.79;100.00;96753.09;5031994;28;20069;-58
2023/04/02 06:16:15;;;;;;;0.52;0.30;;;;;;;6.80;100.00;96754.72;5023675;28;20029;-58
2023/04/02 06:18:42;;;;;;;1.15;0.45;;;;;;;6.86;100.00;96756.41;5022071;28;20053;-59
2023/04/02 06:21:14;;;;;;;4.38;0.60;;;;;;;6.86;100.00;96759.09;5029895;28;20038;-57
2023/04/02 06:23:52;;;;;;;0.52;0.30;;;;;;;6.94;100.00;96770.53;5025644;28;20424;-57
2023/04/02 06:26:32;;;;;;;1.23;0.40;;;;;;;6.99;100.00;96763.38;5026482;28;20041;-58
2023/04/02 06:29:20;;;;;;;0.82;0.40;;;;;;;7.08;100.00;96774.53;5029437;28;20048;-56
2023/04/02 06:31:59;;;;;;;1.25;0.60;;;;;;;7.09;100.00;96784.28;5018787;28;20141;-55
2023/04/02 06:34:28;;;;;;;1.02;0.40;;;;;;;7.02;100.00;96789.00;5025476;28;20041;-53
2023/04/02 06:37:03;;;;;;;0.70;0.38;;;;;;;7.04;100.00;96781.47;5027880;28;20618;-52
2023/04/02 06:39:32;;;;;;;1.23;0.60;;;;;;;6.96;100.00;96787.28;5023395;28;20048;-53
2023/04/02 06:42:09;;;;;;;0.90;0.40;;;;;;;6.94;100.00;96792.91;5023355;28;20068;-55
2023/04/02 06:44:55;;;;;;;3.08;0.70;;;;;;;7.08;100.00;96797.97;5027107;28;20059;-52
2023/04/02 06:47:45;;;;;;;0.68;0.47;;;;;;;7.06;100.00;96800.91;5023309;28;20045;-54
2023/04/02 06:50:26;;;;;;;0.60;0.30;;;;;;;7.03;100.00;96806.75;5024824;28;20033;-53
2023/04/02 06:52:57;;;;;;;0.40;0.40;;;;;;;7.05;100.00;96809.22;5027226;28;20144;-52
2023/04/02 06:55:43;;;;;;;1.15;0.90;;;;;;;7.11;100.00;96814.44;5021617;28;20044;-53
2023/04/02 06:58:10;;;;;;;0.90;0.50;;;;;;;7.12;100.00;96810.69;5021120;28;20072;-54
2023/04/02 07:00:41;;;;;;;0.95;0.32;;;;;;;7.20;100.00;96820.25;5026568;28;20513;-52
2023/04/02 07:03:26;;;;;;;2.65;0.40;;;;;;;7.23;100.00;96821.66;5020799;28;20079;-52
2023/04/02 07:05:56;;;;;;;2.80;0.50;;;;;;;7.29;100.00;96831.44;5018912;28;20045;-57
2023/04/02 07:08:22;;;;;;;2.85;0.40;;;;;;;7.41;99.19;96834.84;5025113;28;20046;-58
2023/04/02 07:10:49;;;;;;;1.55;0.40;;;;;;;7.48;99.42;96841.97;5025723;28;20060;-60
2023/04/02 07:13:18;;;;;;;0.88;0.20;;;;;;;7.53;99.99;96840.16;5020405;28;20038;-56
2023/04/02 07:15:47;;;;;;;0.50;0.20;;;;;;;7.59;97.97;96843.75;5026614;28;20708;-57
2023/04/02 07:18:27;;;;;;;0.73;0.30;;;;;;;7.51;100.00;96849.53;5019535;28;20170;-57
2023/04/02 07:20:55;;;;;;;1.35;0.57;;;;;;;7.51;100.00;96855.75;5026955;28;20064;-59
2023/04/02 07:23:23;;;;;;;0.70;0.40;;;;;;;7.62;100.00;96853.22;5026994;28;20572;-59
2023/04/02 07:25:52;;;;;;;1.83;0.38;;;;;;;7.79;99.50;96856.75;5029929;28;20424;-58
2023/04/02 07:28:20;;;;;;;0.75;0.45;;;;;;;7.90;96.75;96857.72;5023369;28;20049;-59
2023/04/02 07:30:49;;;;;;;1.75;0.40;;;;;;;7.87;96.26;96865.47;5029683;28;20057;-58
2023/04/02 07:33:17;;;;;;;0.77;0.32;;;;;;;7.84;98.12;96872.16;5028693;28;20518;-58
2023/04/02 07:35:45;;;;;;;0.38;0.30;;;;;;;7.83;97.20;96870.53;5021566;28;20737;-59
2023/04/02 07:38:11;;;;;;;0.70;0.40;;;;;;;7.96;96.14;96871.25;5023718;28;20074;-59
2023/04/02 07:40:38;;;;;;;2.10;0.47;;;;;;;8.10;95.64;96869.84;5025759;28;20049;-59
2023/04/02 07:43:05;;;;;;;2.00;0.60;;;;;;;8.23;95.05;96874.06;5024274;28;20075;-58
2023/04/02 07:45:32;;;;;;;1.98;0.52;;;;;;;8.26;94.67;96875.44;5023347;28;20525;-59
2023/04/02 07:48:06;;;;;;;1.02;0.40;;;;;;;7.97;98.88;96881.81;5027361;28;20072;-58
2023/04/02 07:50:33;;;;;;;1.20;0.60;;;;;;;8.03;98.11;96888.06;5023948;28;20041;-59
2023/04/02 07:53:00;;;;;;;0.90;0.57;;;;;;;8.12;95.36;96897.38;5034126;28;20458;-58
2023/04/02 07:55:26;;;;;;;0.77;0.47;;;;;;;8.24;93.74;96902.66;5026009;28;20042;-59
2023/04/02 07:57:55;;;;;;;0.88;0.50;;;;;;;8.37;93.24;96900.69;5026739;28;20041;-58
2023/04/02 08:00:24;;;;;;;1.00;0.50;;;;;;;8.38;94.07;96910.41;5028602;28;20116;-59
2023/04/02 08:02:52;;;;;;;1.55;0.60;;;;;;;8.41;94.82;96913.41;5030750;28;20048;-59
2023/04/02 08:05:19;;;;;;;0.65;0.30;;;;;;;8.29;95.64;96916.22;5027125;28;20491;-58
2023/04/02 08:07:55;;;;;;;1.73;0.50;;;;;;;8.14;95.69;96916.81;5020243;28;20042;-57
2023/04/02 08:10:23;;;;;;;1.95;0.40;;;;;;;8.32;94.49;96923.00;5023087;28;20629;-58
2023/04/02 08:12:50;;;;;;;0.80;0.40;;;;;;;8.20;94.52;96926.63;5030964;28;20104;-59
2023/04/02 08:15:16;;;;;;;0.25;0.22;;;;;;;8.11;93.61;96928.09;5023273;28;20045;-59
2023/04/02 08:17:44;;;;;;;0.45;0.30;;;;;;;8.14;94.58;96929.50;5024856;28;20482;-59
2023/04/02 08:20:19;;;;;;;1.20;0.45;;;;;;;8.37;93.65;96928.44;5020930;28;20041;-57
2023/04/02 08:22:46;;;;;;;0.75;0.50;;;;;;;8.47;93.04;96930.47;5023241;28;20053;-56
2023/04/02 08:25:14;;;;;;;1.60;0.40;;;;;;;8.70;92.03;96937.56;5024766;28;20065;-58
2023/04/02 08:27:41;;;;;;;0.68;0.38;;;;;;;8.64;91.06;96933.19;5024963;28;20152;-59
2023/04/02 08:30:11;;;;;;;1.92;0.43;;;;;;;8.33;92.51;96938.09;5017022;28;20073;-56
2023/04/02 08:32:39;;;;;;;3.17;0.40;;;;;;;8.49;92.45;96949.94;5020179;28;20042;-57
2023/04/02 08:35:11;;;;;;;0.40;0.30;;;;;;;8.32;92.76;96948.09;5023666;28;20496;-59
2023/04/02 08:37:37;;;;;;;0.73;0.30;;;;;;;8.37;92.20;96950.03;5022249;28;20076;-57
2023/04/02 08:40:06;;;;;;;0.68;0.30;;;;;;;8.32;92.47;96956.19;5026585;28;20037;-57
2023/04/02 08:42:48;;;;;;;0.93;0.40;;;;;;;8.37;92.54;96960.03;5020711;28;20053;-55
2023/04/02 08:45:34;;;;;;;0.65;0.35;;;;;;;8.45;92.26;96962.31;5021100;28;20073;-58
2023/04/02 08:48:02;;;;;;;0.40;0.25;;;;;;;8.33;92.71;96967.78;5026695;28;20135;-58
2023/04/02 08:50:36;;;;;;;0.32;0.20;;;;;;;8.44;91.33;96968.78;5025514;28;20639;-58
2023/04/02 08:53:07;;;;;;;0.20;0.20;;;;;;;8.20;92.55;96977.03;5029801;28;20427;-57
2023/04/02 08:55:49;;;;;;;0.40;0.30;;;;;;;8.16;92.82;96978.59;5024788;28;20583;-56
2023/04/02 08:58:33;;;;;;;0.77;0.20;;;;;;;8.37;93.03;96979.72;5024573;28;20111;-57
2023/04/02 09:01:03;;;;;;;0.82;0.40;;;;;;;8.52;92.15;96981.81;5021840;28;20044;-58
2023/04/02 09:03:35;;;;;;;0.75;0.38;;;;;;;8.69;91.98;96987.22;5024220;28;20422;-58
2023/04/02 09:06:03;;;;;;;0.82;0.60;;;;;;;8.66;94.55;96989.59;5018751;28;20041;-58
2023/04/02 09:08:31;;;;;;;4.15;0.93;;;;;;;8.48;96.71;96994.19;5030370;28;20041;-58
2023/04/02 09:11:21;;;;;;;0.88;0.60;;;;;;;8.54;97.23;97000.47;5028672;28;20072;-55
2023/04/02 09:13:54;;;;;;;0.57;0.32;;;;;;;8.43;97.26;97000.31;5023374;28;20049;-59
2023/04/02 09:16:43;;;;;;;2.20;0.43;;;;;;;8.44;96.96;97003.84;5023046;28;20065;-57
2023/04/02 09:19:20;;;;;;;0.30;0.30;;;;;;;8.46;99.34;97007.09;5018729;28;20076;-58
2023/04/02 09:21:57;;;;;;;0.60;0.30;;;;;;;8.51;97.78;97004.47;5026728;28;20041;-56
2023/04/02 09:24:23;;;;;;;0.30;0.25;;;;;;;8.76;96.81;97011.31;5023176;28;20444;-58
2023/04/02 09:26:50;;;;;;;0.10;0.10;;;;;;;8.75;89.74;97014.28;5028739;28;20063;-55
2023/04/02 09:29:34;;;;;;;0.22;0.15;;;;;;;8.67;92.66;97027.13;5021616;28;20040;-58
2023/04/02 09:32:14;;;;;;;0.30;0.22;;;;;;;8.41;93.08;97018.63;5031326;28;20112;-57
2023/04/02 09:34:41;;;;;;;0.40;0.20;;;;;;;8.44;93.83;97028.94;5022548;28;20716;-57
2023/04/02 09:37:17;;;;;;;0.20;0.20;;;;;;;8.57;93.99;97032.38;5025978;28;20044;-58
2023/04/02 09:39:44;;;;;;;0.63;0.30;;;;;;;8.83;92.32;97035.44;5026274;28;20041;-57
2023/04/02 09:42:35;;;;;;;1.20;0.30;;;;;;;9.02;90.76;97037.84;5020663;28;20497;-58
2023/04/02 09:45:21;;;;;;;0.95;0.32;;;;;;;9.10;90.96;97042.81;5024655;28;20049;-58
2023/04/02 09:47:49;;;;;;;0.38;0.32;;;;;;;9.34;90.15;97050.69;5019489;28;20080;-58
2023/04/02 09:50:22;;;;;;;0.50;0.35;;;;;;;9.41;88.89;97048.63;5018744;28;20060;-58
2023/04/02 09:52:49;;;;;;;0.88;0.40;;;;;;;9.42;88.78;97047.53;5026361;28;20080;-57
2023/04/02 09:55:20;;;;;;;0.45;0.30;;;;;;;9.46;87.27;97056.78;5028010;28;20493;-58
2023/04/02 09:57:49;;;;;;;0.95;0.40;;;;;;;9.59;86.21;97055.56;5025476;28;20038;-53
2023/04/02 10:00:22;;;;;;;1.05;0.30;;;;;;;9.39;88.13;97058.84;5022901;28;20052;-55
2023/04/02 10:03:05;;;;;;;1.23;0.30;;;;;;;9.58;86.13;97061.25;5027846;28;20053;-58
2023/04/02 10:05:33;;;;;;;0.47;0.28;;;;;;;9.64;84.78;97057.50;5026635;28;20041;-58
2023/04/02 10:08:17;;;;;;;0.63;0.40;;;;;;;9.71;82.22;97060.00;5028438;28;20041;-59
2023/04/02 10:10:51;;;;;;;0.75;0.40;;;;;;;9.85;81.95;97063.13;5018421;28;20052;-57
2023/04/02 10:13:30;;;;;;;0.75;0.40;;;;;;;10.02;80.74;97066.53;5022026;28;20049;-58
2023/04/02 10:15:57;;;;;;;0.30;0.30;;;;;;;10.27;79.61;97067.84;5029730;28;20108;-58
2023/04/02 10:18:39;;;;;;;1.05;0.50;;;;;;;9.67;83.48;97073.22;5027720;28;20404;-56
2023/04/02 10:21:09;;;;;;;1.40;0.40;;;;;;;9.53;85.25;97074.66;5030199;28;20440;-56
2023/04/02 10:23:35;;;;;;;0.68;0.30;;;;;;;9.61;84.51;97080.47;5019135;28;20492;-58
2023/04/02 10:26:42;;;;;;;0.30;0.20;;;;;;;9.35;84.34;97080.16;5024225;28;20103;-58
2023/04/02 10:29:30;;;;;;;0.45;0.20;;;;;;;9.46;86.47;97078.38;5027634;28;20376;-58
2023/04/02 10:32:11;;;;;;;0.55;0.30;;;;;;;9.49;84.31;97087.88;5018957;28;20696;-57
2023/04/02 10:35:03;;;;;;;0.73;0.30;;;;;;;9.45;84.41;97082.16;5025953;28;20045;-57
2023/04/02 10:37:47;;;;;;;0.20;0.20;;;;;;;9.48;83.33;97081.66;5023381;28;20881;-57
2023/04/02 10:40:17;;;;;;;1.48;0.20;;;;;;;9.56;82.98;97084.97;5021343;28;20048;-56
2023/04/02 10:43:02;;;;;;;0.52;0.30;;;;;;;9.99;81.22;97088.69;5026602;28;20510;-57
2023/04/02 10:45:42;;;;;;;0.52;0.22;;;;;;;10.10;80.64;97086.09;5018724;28;20038;-58
2023/04/02 10:48:21;;;;;;;0.55;0.30;;;;;;;10.43;77.26;97100.44;5023601;28;20048;-56
2023/04/02 10:51:02;;;;;;;2.78;0.40;;;;;;;10.65;77.65;97103.09;5026431;28;20548;-58
2023/04/02 10:53:50;;;;;;;1.08;0.40;;;;;;;10.77;77.24;97097.50;5027017;28;20121;-58
2023/04/02 10:56:16;;;;;;;0.75;0.35;;;;;;;10.84;75.73;97107.31;5014825;28;20073;-58
2023/04/02 10:58:54;;;;;;;0.47;0.20;;;;;;;11.16;74.27;97106.41;5023432;28;20041;-58
2023/04/02 11:01:28;;;;;;;0.32;0.32;;;;;;;11.45;70.93;97108.72;5027295;28;20036;-56
2023/04/02 11:04:01;;;;;;;0.90;0.30;;;;;;;11.41;72.02;97111.16;5025502;28;20479;-57
2023/04/02 11:06:35;;;;;;;0.45;0.20;;;;;;;11.36;72.14;97111.13;5019475;28;20615;-59
2023/04/02 11:09:13;;;;;;;0.17;0.17;;;;;;;11.24;73.11;97114.03;5020598;28;20761;-56
2023/04/02 11:11:43;;;;;;;0.25;0.20;;;;;;;11.12;74.14;97116.13;5020648;28;20046;-58
2023/04/02 11:14:15;;;;;;;0.38;0.20;;;;;;;11.02;74.67;97119.63;5020266;28;20691;-59
2023/04/02 11:16:42;;;;;;;0.93;0.30;;;;;;;10.96;74.12;97124.19;5011720;28;20079;-60
2023/04/02 11:19:13;;;;;;;0.45;0.30;;;;;;;11.13;74.09;97126.72;5011434;28;20778;-59
2023/04/02 11:21:51;;;;;;;1.85;0.40;;;;;;;10.84;74.39;97123.56;5025066;28;20041;-58
2023/04/02 11:24:35;;;;;;;0.52;0.30;;;;;;;10.43;76.99;97127.50;5006457;28;20053;-56
2023/04/02 11:27:17;;;;;;;0.55;0.30;;;;;;;10.39;78.48;97129.09;5008513;28;20053;-58
2023/04/02 11:30:12;;;;;;;0.30;0.30;;;;;;;10.54;78.16;97131.97;4984145;28;20053;-60
2023/04/02 11:32:41;;;;;;;1.85;0.38;;;;;;;10.62;75.98;97130.69;5024222;28;20037;-59
2023/04/02 11:35:36;;;;;;;1.77;0.50;;;;;;;10.45;77.00;97141.66;5026472;28;20049;-60
2023/04/02 11:38:10;;;;;;;1.67;0.45;;;;;;;10.65;74.71;97141.00;5017418;28;20053;-59
2023/04/02 11:40:49;;;;;;;1.00;0.50;;;;;;;10.52;75.59;97144.97;5021999;28;20038;-59
2023/04/02 11:43:34;;;;;;;5.28;1.98;;;;;;;10.39;77.80;97145.34;5022891;28;20060;-59
2023/04/02 11:46:03;;;;;;;1.58;0.98;;;;;;;10.44;78.00;97142.72;5004466;28;20056;-61
2023/04/02 11:48:34;;;;;;;3.60;1.00;;;;;;;10.57;76.58;97146.09;4996084;28;20051;-61
2023/04/02 11:51:21;;;;;;;;;;;;;;;9.80;79.97;97146.91;5005466;28;20136;-60
2023/04/02 11:53:57;;;;;;;1.55;0.30;;;;;;;9.91;80.10;97150.56;5020917;28;19925;-59
2023/04/02 11:56:44;;;;;;;1.42;0.45;;;;;;;9.95;80.95;97154.38;5022243;28;20065;-60
2023/04/02 11:59:51;;;;;;;1.85;0.40;;;;;;;10.06;82.21;97156.09;5016717;28;20470;-56
2023/04/02 12:02:26;;;;;;;1.95;0.90;;;;;;;9.89;84.17;97156.22;5023849;28;20103;-59
2023/04/02 12:05:16;;;;;;;0.32;0.30;;;;;;;9.83;85.32;97168.00;5025992;28;20124;-60
2023/04/02 12:08:13;;;;;;;0.60;0.50;;;;;;;9.78;81.53;97165.25;5015238;28;20049;-61
2023/04/02 12:10:54;;;;;;;0.32;0.28;;;;;;;10.12;80.33;97170.50;5007659;28;20055;-60
2023/04/02 12:13:40;;;;;;;0.63;0.43;;;;;;;10.28;77.68;97169.59;5019114;28;20048;-60
2023/04/02 12:16:09;;;;;;;0.85;0.30;;;;;;;10.32;78.78;97169.09;5024038;28;20047;-57
2023/04/02 12:18:42;;;;;;;0.30;0.30;;;;;;;10.31;80.28;97170.19;5024381;28;20099;-60